Time;durP1;ratioP1;P1;durP2;ratioP2;P2;SDS_P1;SDS_P2;PMS_P1;PMS_P2;Temp;Humidity;BMP_temperature;BMP_pressure;BME280_temperature;BME280_humidity;BME280_pressure;Samples;Min_cycle;Max_cycle;Signal;HPM_P1;HPM_P2
2022/06/15 00:01:12;;;;;;;2.78;2.10;;;;;;;;;;5014449;28;20061;-76
2022/06/15 00:03:37;;;;;;;5.28;2.60;;;;;;;;;;5010155;28;20021;-73
2022/06/15 00:06:13;;;;;;;3.40;2.70;;;;;;;;;;5011635;28;20075;-73
2022/06/15 00:08:40;;;;;;;4.43;2.65;;;;;;;;;;5014676;28;20018;-73
2022/06/15 00:11:11;;;;;;;4.35;2.95;;;;;;;;;;5012548;28;20017;-76
2022/06/15 00:13:36;;;;;;;5.68;3.17;;;;;;;;;;5014034;28;20031;-73
2022/06/15 00:16:03;;;;;;;5.00;3.30;;;;;;;;;;5008505;28;20376;-74
2022/06/15 00:18:28;;;;;;;9.77;3.50;;;;;;;;;;5011940;28;20356;-73
2022/06/15 00:20:55;;;;;;;9.23;5.25;;;;;;;;;;5018037;28;20036;-73
2022/06/15 00:23:20;;;;;;;13.18;6.15;;;;;;;;;;5019359;28;20108;-74
2022/06/15 00:25:50;;;;;;;9.18;4.85;;;;;;;;;;5014600;28;20111;-73
2022/06/15 00:28:15;;;;;;;8.52;4.18;;;;;;;;;;5017306;28;20340;-73
2022/06/15 00:30:41;;;;;;;4.40;3.80;;;;;;;;;;5019283;28;20044;-72
2022/06/15 00:33:06;;;;;;;5.50;3.58;;;;;;;;;;5011843;28;20090;-72
2022/06/15 00:35:31;;;;;;;3.67;3.25;;;;;;;;;;5014271;28;20030;-73
2022/06/15 00:37:57;;;;;;;3.70;2.92;;;;;;;;;;5012819;28;20047;-74
2022/06/15 00:40:22;;;;;;;4.18;2.83;;;;;;;;;;5016955;28;20053;-73
2022/06/15 00:42:47;;;;;;;2.67;2.30;;;;;;;;;;5020000;28;20159;-73
2022/06/15 00:45:13;;;;;;;2.97;2.17;;;;;;;;;;5017914;28;20037;-73
2022/06/15 00:47:40;;;;;;;2.90;2.20;;;;;;;;;;5019447;28;20025;-74
2022/06/15 00:50:07;;;;;;;3.55;2.40;;;;;;;;;;5013504;28;20503;-71
2022/06/15 00:52:36;;;;;;;5.70;2.35;;;;;;;;;;5020056;28;20495;-76
2022/06/15 00:55:04;;;;;;;3.13;2.40;;;;;;;;;;5018932;28;20033;-72
2022/06/15 00:57:29;;;;;;;2.78;2.38;;;;;;;;;;5019153;28;20036;-72
2022/06/15 00:59:56;;;;;;;4.20;2.30;;;;;;;;;;5018588;28;20029;-73
2022/06/15 01:02:22;;;;;;;2.67;2.00;;;;;;;;;;5019105;28;20700;-72
2022/06/15 01:04:50;;;;;;;2.65;2.40;;;;;;;;;;5017857;28;20041;-71
2022/06/15 01:07:25;;;;;;;3.53;2.47;;;;;;;;;;5017744;28;20077;-73
2022/06/15 01:10:02;;;;;;;2.53;2.20;;;;;;;;;;5012643;28;20052;-72
2022/06/15 01:12:51;;;;;;;3.00;2.35;;;;;;;;;;5010975;28;20022;-73
2022/06/15 01:15:40;;;;;;;2.20;1.85;;;;;;;;;;5000704;28;20056;-73
2022/06/15 01:18:30;;;;;;;3.60;2.25;;;;;;;;;;5009857;28;20056;-74
2022/06/15 01:21:06;;;;;;;5.00;2.05;;;;;;;;;;5019720;28;20412;-72
2022/06/15 01:23:44;;;;;;;2.70;2.38;;;;;;;;;;5016792;28;20021;-75
2022/06/15 01:26:22;;;;;;;3.20;2.20;;;;;;;;;;5013723;28;20361;-72
2022/06/15 01:29:02;;;;;;;3.30;2.22;;;;;;;;;;5017712;28;21034;-73
2022/06/15 01:31:58;;;;;;;4.13;2.53;;;;;;;;;;5018638;28;20029;-73
2022/06/15 01:34:35;;;;;;;2.28;2.08;;;;;;;;;;5008887;28;20097;-72
2022/06/15 01:37:04;;;;;;;2.72;1.92;;;;;;;;;;5015374;28;20360;-73
2022/06/15 01:39:40;;;;;;;3.97;2.28;;;;;;;;;;5015942;28;20100;-72
2022/06/15 01:42:11;;;;;;;4.22;2.38;;;;;;;;;;5017094;28;20039;-72
2022/06/15 01:44:48;;;;;;;2.42;2.20;;;;;;;;;;5015796;28;20018;-72
2022/06/15 01:47:15;;;;;;;2.97;2.35;;;;;;;;;;5016524;28;20029;-72
2022/06/15 01:49:50;;;;;;;3.35;2.80;;;;;;;;;;5019699;28;20101;-72
2022/06/15 01:52:18;;;;;;;3.97;2.55;;;;;;;;;;5015675;28;20033;-76
2022/06/15 01:54:46;;;;;;;2.92;1.92;;;;;;;;;;5015851;28;20352;-75
2022/06/15 01:57:15;;;;;;;2.72;2.30;;;;;;;;;;5012606;28;20047;-77
2022/06/15 01:59:50;;;;;;;2.55;2.35;;;;;;;;;;5011942;28;20462;-73
2022/06/15 02:02:18;;;;;;;3.38;2.47;;;;;;;;;;5020983;28;20372;-73
2022/06/15 02:04:50;;;;;;;3.40;2.05;;;;;;;;;;5017297;28;20017;-72
2022/06/15 02:07:15;;;;;;;2.03;1.92;;;;;;;;;;5015412;28;20033;-73
2022/06/15 02:09:43;;;;;;;3.40;2.40;;;;;;;;;;5018359;28;20029;-72
2022/06/15 02:12:09;;;;;;;4.80;2.40;;;;;;;;;;5016037;28;20034;-73
2022/06/15 02:14:35;;;;;;;3.60;2.47;;;;;;;;;;5017763;28;20074;-74
2022/06/15 02:17:20;;;;;;;3.22;2.03;;;;;;;;;;5017338;28;20086;-73
2022/06/15 02:19:47;;;;;;;2.03;1.83;;;;;;;;;;5011505;28;20039;-72
2022/06/15 02:22:17;;;;;;;2.25;2.05;;;;;;;;;;5013507;28;20376;-73
2022/06/15 02:24:44;;;;;;;3.60;2.42;;;;;;;;;;5018854;28;20317;-73
2022/06/15 02:27:11;;;;;;;2.55;2.35;;;;;;;;;;5018051;28;20372;-73
2022/06/15 02:29:38;;;;;;;3.30;2.63;;;;;;;;;;5016565;28;20049;-76
2022/06/15 02:32:08;;;;;;;2.97;2.42;;;;;;;;;;5014470;28;20064;-72
2022/06/15 02:34:33;;;;;;;3.05;2.30;;;;;;;;;;5018281;28;20405;-73
2022/06/15 02:36:58;;;;;;;5.47;2.67;;;;;;;;;;5015312;28;20068;-73
2022/06/15 02:39:24;;;;;;;3.15;2.28;;;;;;;;;;5012399;28;20483;-73
2022/06/15 02:41:59;;;;;;;4.85;2.47;;;;;;;;;;4997272;28;20030;-73
2022/06/15 02:44:26;;;;;;;3.20;2.55;;;;;;;;;;4995589;28;20105;-74
2022/06/15 02:46:52;;;;;;;4.38;2.38;;;;;;;;;;5000911;28;20080;-74
2022/06/15 02:49:18;;;;;;;2.65;2.38;;;;;;;;;;4995492;28;20455;-73
2022/06/15 02:51:47;;;;;;;4.15;2.67;;;;;;;;;;4995931;28;20025;-74
2022/06/15 02:54:21;;;;;;;5.53;2.95;;;;;;;;;;4998958;28;20057;-73
2022/06/15 02:56:47;;;;;;;5.20;2.78;;;;;;;;;;4998140;28;20052;-73
2022/06/15 02:59:12;;;;;;;5.45;2.97;;;;;;;;;;4990457;28;20030;-73
2022/06/15 03:01:37;;;;;;;4.35;2.97;;;;;;;;;;4996147;28;20142;-73
2022/06/15 03:04:03;;;;;;;4.32;2.97;;;;;;;;;;4997485;28;20112;-73
2022/06/15 03:06:28;;;;;;;4.05;3.22;;;;;;;;;;4994495;28;20022;-73
2022/06/15 03:08:55;;;;;;;6.97;2.63;;;;;;;;;;4997501;28;20024;-73
2022/06/15 03:11:20;;;;;;;5.13;2.90;;;;;;;;;;4996281;28;20088;-73
2022/06/15 03:13:46;;;;;;;3.40;2.67;;;;;;;;;;4998667;28;20388;-75
2022/06/15 03:16:11;;;;;;;6.18;2.65;;;;;;;;;;4997603;28;20495;-73
2022/06/15 03:18:36;;;;;;;2.72;2.30;;;;;;;;;;4998753;28;20034;-73
2022/06/15 03:21:02;;;;;;;4.88;2.95;;;;;;;;;;4996844;28;20030;-73
2022/06/15 03:23:29;;;;;;;2.55;2.28;;;;;;;;;;4994218;28;20353;-76
2022/06/15 03:25:54;;;;;;;2.55;2.35;;;;;;;;;;4992991;28;20058;-75
2022/06/15 03:28:20;;;;;;;3.05;2.55;;;;;;;;;;4996873;28;20349;-75
2022/06/15 03:30:45;;;;;;;4.40;2.75;;;;;;;;;;4995213;28;20053;-73
2022/06/15 03:33:10;;;;;;;3.63;2.25;;;;;;;;;;4989559;28;20045;-73
2022/06/15 03:35:36;;;;;;;3.25;2.30;;;;;;;;;;5000865;28;20320;-75
2022/06/15 03:38:02;;;;;;;3.25;2.30;;;;;;;;;;4998262;28;20053;-73
2022/06/15 03:40:28;;;;;;;3.72;2.05;;;;;;;;;;5012402;28;20368;-73
2022/06/15 03:42:53;;;;;;;2.58;2.38;;;;;;;;;;5017851;28;20744;-73
2022/06/15 03:45:19;;;;;;;3.25;2.38;;;;;;;;;;5015648;28;20025;-73
2022/06/15 03:47:44;;;;;;;5.25;1.90;;;;;;;;;;5016572;28;21043;-73
2022/06/15 03:50:09;;;;;;;2.70;2.45;;;;;;;;;;5017223;28;20036;-74
2022/06/15 03:52:35;;;;;;;2.72;2.05;;;;;;;;;;5013700;28;20029;-73
2022/06/15 03:55:01;;;;;;;3.22;2.10;;;;;;;;;;5016481;28;20044;-73
2022/06/15 03:57:26;;;;;;;2.20;1.90;;;;;;;;;;5018296;28;20340;-73
2022/06/15 03:59:51;;;;;;;2.97;2.20;;;;;;;;;;5014978;28;20061;-74
2022/06/15 04:02:17;;;;;;;3.03;2.00;;;;;;;;;;5017885;28;20029;-72
2022/06/15 04:04:42;;;;;;;2.30;2.10;;;;;;;;;;5008850;28;20096;-74
2022/06/15 04:08:34;;;;;;;5.65;2.42;;;;;;;;;;5007490;28;20030;-72
2022/06/15 04:09:54;;;;;;;2.60;2.30;;;;;;;;;;5006750;28;20036;-74
2022/06/15 04:12:21;;;;;;;3.45;2.42;;;;;;;;;;5008067;28;20356;-73
2022/06/15 04:14:47;;;;;;;2.60;2.40;;;;;;;;;;5007325;28;20094;-73
2022/06/15 04:17:13;;;;;;;4.60;2.70;;;;;;;;;;5008749;28;20513;-73
2022/06/15 04:19:38;;;;;;;3.92;2.70;;;;;;;;;;5012994;28;20025;-72
2022/06/15 04:22:04;;;;;;;3.83;2.40;;;;;;;;;;5015414;28;20340;-71
2022/06/15 04:24:30;;;;;;;2.75;2.35;;;;;;;;;;5012880;28;20032;-74
2022/06/15 04:26:56;;;;;;;5.90;3.47;;;;;;;;;;5014112;28;20025;-72
2022/06/15 04:29:21;;;;;;;4.25;2.60;;;;;;;;;;5015681;28;20509;-71
2022/06/15 04:31:47;;;;;;;6.93;2.95;;;;;;;;;;5013972;28;20538;-71
2022/06/15 04:34:12;;;;;;;3.78;2.88;;;;;;;;;;5015711;28;20033;-72
2022/06/15 04:36:39;;;;;;;7.13;2.60;;;;;;;;;;5009777;28;20046;-73
2022/06/15 04:39:05;;;;;;;4.22;2.88;;;;;;;;;;5013733;28;20050;-72
2022/06/15 04:41:32;;;;;;;4.53;3.00;;;;;;;;;;5010672;28;20021;-73
2022/06/15 04:43:58;;;;;;;3.15;2.85;;;;;;;;;;5006366;28;20156;-71
2022/06/15 04:46:23;;;;;;;3.20;2.83;;;;;;;;;;5007025;28;20116;-69
2022/06/15 04:48:49;;;;;;;5.07;2.95;;;;;;;;;;5013428;28;20751;-69
2022/06/15 04:51:15;;;;;;;3.47;2.83;;;;;;;;;;5016273;28;20060;-69
2022/06/15 04:53:41;;;;;;;4.35;2.80;;;;;;;;;;5011164;28;20715;-73
2022/06/15 04:56:06;;;;;;;3.35;2.88;;;;;;;;;;5009504;28;20041;-73
2022/06/15 04:58:32;;;;;;;5.18;3.00;;;;;;;;;;5016450;28;20072;-72
2022/06/15 05:00:57;;;;;;;3.85;2.92;;;;;;;;;;5015036;28;20502;-75
2022/06/15 05:03:22;;;;;;;4.60;2.90;;;;;;;;;;5018583;28;20368;-75
2022/06/15 05:05:48;;;;;;;6.82;3.45;;;;;;;;;;5017595;28;20025;-70
2022/06/15 05:08:13;;;;;;;7.65;3.53;;;;;;;;;;5014663;28;20344;-72
2022/06/15 05:10:38;;;;;;;3.13;2.70;;;;;;;;;;5014047;28;20017;-74
2022/06/15 05:13:04;;;;;;;4.63;2.67;;;;;;;;;;5017254;28;20083;-70
2022/06/15 05:15:29;;;;;;;3.00;2.60;;;;;;;;;;5016456;28;20044;-71
2022/06/15 05:17:55;;;;;;;3.50;2.30;;;;;;;;;;5018562;28;20816;-73
2022/06/15 05:20:20;;;;;;;3.47;2.40;;;;;;;;;;5018011;28;20018;-71
2022/06/15 05:22:49;;;;;;;3.10;2.33;;;;;;;;;;5016027;28;20084;-71
2022/06/15 05:25:15;;;;;;;4.05;2.50;;;;;;;;;;5014461;28;20356;-72
2022/06/15 05:27:40;;;;;;;4.18;2.75;;;;;;;;;;5013062;28;20542;-73
2022/06/15 05:30:06;;;;;;;5.55;3.33;;;;;;;;;;5015990;28;20514;-74
2022/06/15 05:32:31;;;;;;;3.22;2.45;;;;;;;;;;5016860;28;20091;-69
2022/06/15 05:34:56;;;;;;;6.85;2.80;;;;;;;;;;5017580;28;20017;-72
2022/06/15 05:37:22;;;;;;;4.22;2.30;;;;;;;;;;5015595;28;20033;-71
2022/06/15 05:39:48;;;;;;;2.83;2.05;;;;;;;;;;5017863;28;21044;-71
2022/06/15 05:42:14;;;;;;;2.50;2.30;;;;;;;;;;5020425;28;20061;-72
2022/06/15 05:47:06;;;;;;;4.63;2.35;;;;;;;;;;5016308;28;20436;-71
2022/06/15 05:49:32;;;;;;;2.85;2.25;;;;;;;;;;5016366;28;20029;-74
2022/06/15 05:51:57;;;;;;;2.10;2.00;;;;;;;;;;5013830;28;20332;-73
2022/06/15 05:54:23;;;;;;;5.13;2.40;;;;;;;;;;5013473;28;20026;-72
2022/06/15 05:56:48;;;;;;;6.60;3.35;;;;;;;;;;5011795;28;20041;-71
2022/06/15 05:59:14;;;;;;;3.90;2.78;;;;;;;;;;5017645;28;20113;-70
2022/06/15 06:01:40;;;;;;;3.83;2.55;;;;;;;;;;5017317;28;20759;-71
2022/06/15 06:04:06;;;;;;;3.63;2.38;;;;;;;;;;5015722;28;20029;-71
2022/06/15 06:06:32;;;;;;;3.30;2.42;;;;;;;;;;5015321;28;20052;-72
2022/06/15 06:08:57;;;;;;;3.85;2.38;;;;;;;;;;5018322;28;20083;-71
2022/06/15 06:11:23;;;;;;;2.33;2.10;;;;;;;;;;5015372;28;20030;-74
2022/06/15 06:13:48;;;;;;;4.43;2.40;;;;;;;;;;5015279;28;20033;-73
2022/06/15 06:16:14;;;;;;;2.40;2.20;;;;;;;;;;5018332;28;20091;-71
2022/06/15 06:18:39;;;;;;;5.00;2.33;;;;;;;;;;5017660;28;20032;-74
2022/06/15 06:21:05;;;;;;;2.35;2.05;;;;;;;;;;5015180;28;20022;-70
2022/06/15 06:23:31;;;;;;;4.18;2.40;;;;;;;;;;5015639;28;20349;-71
2022/06/15 06:25:57;;;;;;;2.50;2.30;;;;;;;;;;5018222;28;20029;-71
2022/06/15 06:28:30;;;;;;;2.50;2.25;;;;;;;;;;5016186;28;20094;-71
2022/06/15 06:31:00;;;;;;;2.40;2.20;;;;;;;;;;5015423;28;20035;-72
2022/06/15 06:33:27;;;;;;;3.50;2.30;;;;;;;;;;5016337;28;20387;-71
2022/06/15 06:35:53;;;;;;;2.75;2.10;;;;;;;;;;5019430;28;21128;-71
2022/06/15 06:38:18;;;;;;;3.45;2.47;;;;;;;;;;5012336;28;20033;-71
2022/06/15 06:40:44;;;;;;;3.00;2.45;;;;;;;;;;5016578;28;20057;-71
2022/06/15 06:43:09;;;;;;;2.25;2.00;;;;;;;;;;5014083;28;20034;-71
2022/06/15 06:45:34;;;;;;;2.03;1.83;;;;;;;;;;5018190;28;20502;-75
2022/06/15 06:48:00;;;;;;;3.05;2.10;;;;;;;;;;5016732;28;20083;-73
2022/06/15 06:50:26;;;;;;;2.83;1.45;;;;;;;;;;5014699;28;20091;-72
2022/06/15 06:52:51;;;;;;;2.05;1.70;;;;;;;;;;5017552;28;20066;-73
2022/06/15 06:55:17;;;;;;;2.97;1.75;;;;;;;;;;5017078;28;20033;-72
2022/06/15 06:57:42;;;;;;;2.60;1.52;;;;;;;;;;5018260;28;20428;-72
2022/06/15 07:00:08;;;;;;;3.42;1.80;;;;;;;;;;5014309;28;20053;-73
2022/06/15 07:02:33;;;;;;;3.03;2.03;;;;;;;;;;5010662;28;20064;-71
2022/06/15 07:04:59;;;;;;;16.05;8.30;;;;;;;;;;5012905;28;20079;-71
2022/06/15 07:07:24;;;;;;;14.18;6.68;;;;;;;;;;5017258;28;20053;-70
2022/06/15 07:09:49;;;;;;;23.58;12.00;;;;;;;;;;5015612;28;20025;-72
2022/06/15 07:12:15;;;;;;;16.65;9.45;;;;;;;;;;5019197;28;20038;-71
2022/06/15 07:14:40;;;;;;;5.88;4.05;;;;;;;;;;5015982;28;20040;-70
2022/06/15 07:17:05;;;;;;;4.32;2.10;;;;;;;;;;5014155;28;20048;-71
2022/06/15 07:19:31;;;;;;;14.13;6.20;;;;;;;;;;5015277;28;20413;-74
2022/06/15 07:21:56;;;;;;;9.57;5.20;;;;;;;;;;5013474;28;20075;-72
2022/06/15 07:24:21;;;;;;;11.30;5.90;;;;;;;;;;5016314;28;20030;-70
2022/06/15 07:26:47;;;;;;;6.50;3.10;;;;;;;;;;5016472;28;20391;-74
2022/06/15 07:29:14;;;;;;;2.95;2.30;;;;;;;;;;5014106;28;20443;-71
2022/06/15 07:31:41;;;;;;;3.75;2.75;;;;;;;;;;5016186;28;20128;-70
2022/06/15 07:34:08;;;;;;;2.58;2.38;;;;;;;;;;5023449;28;20034;-70
2022/06/15 07:36:36;;;;;;;2.53;2.33;;;;;;;;;;5017736;28;20363;-70
2022/06/15 07:39:02;;;;;;;1.80;1.70;;;;;;;;;;5015701;28;20026;-72
2022/06/15 07:41:28;;;;;;;2.50;2.30;;;;;;;;;;5015284;28;20261;-72
2022/06/15 07:43:53;;;;;;;2.63;2.20;;;;;;;;;;5017859;28;20037;-70
2022/06/15 07:46:19;;;;;;;2.10;1.90;;;;;;;;;;5013259;28;20137;-74
2022/06/15 07:51:34;;;;;;;4.07;2.13;;;;;;;;;;5010326;28;20072;-70
2022/06/15 07:54:00;;;;;;;2.40;1.67;;;;;;;;;;5016329;28;20021;-70
2022/06/15 07:56:26;;;;;;;2.42;1.70;;;;;;;;;;5015898;28;20128;-70
2022/06/15 07:58:51;;;;;;;3.40;2.40;;;;;;;;;;5017539;28;20097;-70
2022/06/15 08:01:17;;;;;;;2.63;1.80;;;;;;;;;;5012542;28;20108;-70
2022/06/15 08:03:42;;;;;;;3.20;1.92;;;;;;;;;;5015383;28;20033;-69
2022/06/15 08:06:07;;;;;;;2.30;1.80;;;;;;;;;;5013810;28;20059;-70
2022/06/15 08:08:34;;;;;;;3.75;2.92;;;;;;;;;;5015467;28;20030;-73
2022/06/15 08:10:59;;;;;;;4.40;2.50;;;;;;;;;;5015845;28;20071;-70
2022/06/15 08:13:24;;;;;;;2.28;1.50;;;;;;;;;;5016154;28;20045;-69
2022/06/15 08:15:50;;;;;;;2.83;2.33;;;;;;;;;;5012723;28;20041;-71
2022/06/15 08:18:17;;;;;;;4.40;2.10;;;;;;;;;;5015455;28;20014;-70
2022/06/15 08:20:45;;;;;;;2.15;1.95;;;;;;;;;;5015971;28;20060;-73
2022/06/15 08:23:13;;;;;;;3.15;1.75;;;;;;;;;;5010890;28;20065;-70
2022/06/15 08:25:40;;;;;;;3.60;1.90;;;;;;;;;;5016203;28;20227;-70
2022/06/15 08:28:06;;;;;;;2.95;1.88;;;;;;;;;;5015868;28;20026;-72
2022/06/15 08:30:34;;;;;;;4.30;1.70;;;;;;;;;;5014436;28;20064;-70
2022/06/15 08:32:59;;;;;;;2.35;1.90;;;;;;;;;;5012737;28;20071;-70
2022/06/15 08:35:25;;;;;;;3.50;1.90;;;;;;;;;;5016444;28;20033;-70
2022/06/15 08:37:50;;;;;;;3.45;2.03;;;;;;;;;;5015408;28;20428;-72
2022/06/15 08:40:16;;;;;;;2.47;1.98;;;;;;;;;;5019328;28;20136;-70
2022/06/15 08:42:56;;;;;;;2.97;2.00;;;;;;;;;;5020049;28;20148;-70
2022/06/15 08:45:39;;;;;;;1.88;1.40;;;;;;;;;;5017408;28;20356;-71
2022/06/15 08:48:23;;;;;;;2.03;1.80;;;;;;;;;;5020021;28;20017;-74
2022/06/15 08:50:57;;;;;;;5.90;3.10;;;;;;;;;;5018711;28;20067;-74
2022/06/15 08:53:25;;;;;;;3.25;2.75;;;;;;;;;;5018525;28;20142;-70
2022/06/15 08:55:59;;;;;;;2.30;2.10;;;;;;;;;;5018541;28;20352;-70
2022/06/15 08:58:27;;;;;;;2.55;1.60;;;;;;;;;;5016814;28;20021;-71
2022/06/15 09:00:55;;;;;;;3.50;2.43;;;;;;;;;;5020299;28;20103;-70
2022/06/15 09:03:23;;;;;;;2.90;1.52;;;;;;;;;;5019094;28;20053;-72
2022/06/15 09:05:52;;;;;;;1.80;1.67;;;;;;;;;;5018798;28;20044;-71
2022/06/15 09:08:29;;;;;;;2.75;1.90;;;;;;;;;;5019988;28;20387;-70
2022/06/15 09:11:01;;;;;;;2.17;1.70;;;;;;;;;;5020920;28;20372;-74
2022/06/15 09:13:33;;;;;;;3.75;1.52;;;;;;;;;;5018983;28;20033;-71
2022/06/15 09:16:06;;;;;;;3.25;1.63;;;;;;;;;;5020860;28;20037;-70
2022/06/15 09:18:34;;;;;;;3.63;1.90;;;;;;;;;;5020927;28;20064;-70
2022/06/15 09:21:15;;;;;;;2.83;1.80;;;;;;;;;;5020515;28;20084;-70
2022/06/15 09:23:43;;;;;;;1.83;1.50;;;;;;;;;;5018433;28;20026;-70
2022/06/15 09:26:11;;;;;;;1.88;1.77;;;;;;;;;;5021396;28;20451;-74
2022/06/15 09:28:43;;;;;;;1.58;1.15;;;;;;;;;;5018499;28;20032;-72
2022/06/15 09:31:18;;;;;;;3.03;1.67;;;;;;;;;;5018006;28;20033;-70
2022/06/15 09:33:47;;;;;;;1.60;1.50;;;;;;;;;;5016536;28;20037;-73
2022/06/15 09:36:16;;;;;;;3.10;1.73;;;;;;;;;;5017571;28;20467;-70
2022/06/15 09:38:42;;;;;;;6.10;2.00;;;;;;;;;;5013786;28;20356;-72
2022/06/15 09:41:09;;;;;;;2.15;1.67;;;;;;;;;;5016998;28;20039;-70
2022/06/15 09:43:49;;;;;;;2.00;1.40;;;;;;;;;;5018553;28;20239;-74
2022/06/15 09:46:20;;;;;;;2.75;1.90;;;;;;;;;;5016583;28;20036;-71
2022/06/15 09:48:54;;;;;;;2.05;1.75;;;;;;;;;;5015087;28;20029;-75
2022/06/15 09:51:55;;;;;;;1.85;1.70;;;;;;;;;;5017673;28;20116;-74
2022/06/15 09:54:39;;;;;;;1.75;1.65;;;;;;;;;;4936588;28;20038;-75
2022/06/15 09:57:04;;;;;;;1.63;1.50;;;;;;;;;;5010869;28;20503;-73
2022/06/15 09:59:33;;;;;;;1.85;1.55;;;;;;;;;;5019692;28;20104;-72
2022/06/15 10:01:59;;;;;;;1.90;1.50;;;;;;;;;;5017390;28;20083;-71
2022/06/15 10:04:27;;;;;;;7.43;1.70;;;;;;;;;;5020389;28;20033;-72
2022/06/15 10:07:08;;;;;;;1.60;1.50;;;;;;;;;;5019307;28;20056;-72
2022/06/15 10:09:36;;;;;;;2.28;1.77;;;;;;;;;;5018460;28;20439;-70
2022/06/15 10:14:48;;;;;;;3.63;1.80;;;;;;;;;;5016773;28;20160;-70
2022/06/15 10:17:26;;;;;;;1.90;1.40;;;;;;;;;;5016012;28;20033;-73
2022/06/15 10:19:53;;;;;;;2.13;1.40;;;;;;;;;;5017824;28;20048;-70
2022/06/15 10:22:27;;;;;;;2.00;1.60;;;;;;;;;;5018225;28;20026;-72
2022/06/15 10:24:53;;;;;;;1.13;1.10;;;;;;;;;;5014809;28;20033;-71
2022/06/15 10:27:21;;;;;;;2.35;1.25;;;;;;;;;;5017161;28;20022;-74
2022/06/15 10:30:01;;;;;;;2.30;1.52;;;;;;;;;;5016841;28;20018;-70
2022/06/15 10:32:27;;;;;;;1.27;1.17;;;;;;;;;;5019556;28;20033;-75
2022/06/15 10:34:52;;;;;;;1.70;1.60;;;;;;;;;;5015415;28;20092;-71
2022/06/15 10:37:20;;;;;;;3.08;1.95;;;;;;;;;;5017599;28;20984;-74
2022/06/15 10:39:50;;;;;;;1.53;1.30;;;;;;;;;;5016344;28;20179;-71
2022/06/15 10:42:20;;;;;;;2.88;2.10;;;;;;;;;;5015815;28;20621;-71
2022/06/15 10:44:59;;;;;;;2.15;1.67;;;;;;;;;;5017073;28;20022;-72
2022/06/15 10:47:33;;;;;;;1.70;1.60;;;;;;;;;;5015940;28;20524;-70
2022/06/15 10:50:00;;;;;;;2.53;1.42;;;;;;;;;;5015234;28;20117;-71
2022/06/15 10:52:29;;;;;;;2.45;1.33;;;;;;;;;;5018021;28;20064;-72
2022/06/15 11:03:35;;;;;;;1.88;1.52;;;;;;;;;;5016829;28;20348;-70
2022/06/15 11:06:00;;;;;;;5.70;1.58;;;;;;;;;;5016992;28;20029;-70
2022/06/15 11:08:29;;;;;;;1.80;1.70;;;;;;;;;;5018211;28;20045;-72
2022/06/15 11:11:13;;;;;;;1.45;1.35;;;;;;;;;;5013268;28;20025;-70
2022/06/15 11:13:42;;;;;;;4.32;1.67;;;;;;;;;;5016812;28;20080;-73
2022/06/15 11:19:13;;;;;;;7.63;1.58;;;;;;;;;;5015404;28;20111;-72
2022/06/15 11:21:48;;;;;;;2.80;2.20;;;;;;;;;;5018053;28;20108;-71
2022/06/15 11:24:32;;;;;;;1.60;1.50;;;;;;;;;;5017554;28;20021;-73
2022/06/15 11:27:04;;;;;;;1.48;1.38;;;;;;;;;;5015836;28;20432;-71
2022/06/15 11:29:48;;;;;;;1.38;1.27;;;;;;;;;;5016332;28;20076;-70
2022/06/15 11:32:32;;;;;;;1.33;1.23;;;;;;;;;;5016318;28;20040;-70
2022/06/15 11:35:26;;;;;;;3.00;1.75;;;;;;;;;;5014269;28;20057;-70
2022/06/15 11:38:11;;;;;;;3.67;1.67;;;;;;;;;;5007717;28;20040;-71
2022/06/15 11:41:02;;;;;;;1.88;1.77;;;;;;;;;;5013959;28;20049;-72
2022/06/15 11:43:28;;;;;;;2.40;1.60;;;;;;;;;;5012945;28;20136;-74
2022/06/15 11:45:59;;;;;;;1.88;1.40;;;;;;;;;;5019702;28;20100;-71
2022/06/15 11:48:36;;;;;;;2.53;2.03;;;;;;;;;;5016215;28;20099;-71
2022/06/15 11:51:11;;;;;;;2.35;2.10;;;;;;;;;;5010763;28;20029;-74
2022/06/15 11:53:36;;;;;;;3.00;2.17;;;;;;;;;;5016862;28;20786;-74
2022/06/15 11:56:08;;;;;;;1.67;1.48;;;;;;;;;;5016436;28;20041;-72
2022/06/15 11:58:57;;;;;;;2.47;1.70;;;;;;;;;;5014930;28;20039;-71
2022/06/15 12:01:28;;;;;;;1.70;1.55;;;;;;;;;;5009574;28;20483;-72
2022/06/15 12:03:56;;;;;;;2.85;2.00;;;;;;;;;;5013078;28;20021;-73
2022/06/15 12:06:27;;;;;;;3.42;1.70;;;;;;;;;;5015722;28;20029;-73
2022/06/15 12:08:52;;;;;;;4.78;1.50;;;;;;;;;;5017059;28;20030;-71
2022/06/15 12:14:26;;;;;;;2.40;2.20;;;;;;;;;;5020213;28;20096;-70
2022/06/15 12:16:55;;;;;;;3.13;1.90;;;;;;;;;;5019821;28;20048;-72
2022/06/15 12:19:35;;;;;;;2.83;1.75;;;;;;;;;;5020405;28;20021;-72
2022/06/15 12:22:16;;;;;;;2.55;1.80;;;;;;;;;;5021680;28;20029;-71
2022/06/15 12:24:52;;;;;;;2.22;2.03;;;;;;;;;;5020694;28;20402;-75
2022/06/15 12:27:34;;;;;;;2.10;1.70;;;;;;;;;;5017722;28;20030;-74
2022/06/15 12:30:20;;;;;;;3.17;1.70;;;;;;;;;;5016063;28;20333;-71
2022/06/15 12:33:05;;;;;;;2.03;1.50;;;;;;;;;;5003702;28;20041;-73
2022/06/15 12:35:34;;;;;;;2.78;1.80;;;;;;;;;;5021150;28;20033;-71
2022/06/15 12:38:25;;;;;;;2.78;1.60;;;;;;;;;;5018195;28;20427;-71
2022/06/15 12:40:51;;;;;;;1.73;1.63;;;;;;;;;;5014595;28;20038;-72
2022/06/15 12:43:16;;;;;;;1.70;1.60;;;;;;;;;;5017725;28;20440;-71
2022/06/15 12:45:52;;;;;;;2.05;1.55;;;;;;;;;;5018127;28;20034;-72
2022/06/15 12:48:38;;;;;;;1.55;1.45;;;;;;;;;;5016919;28;20350;-72
2022/06/15 12:51:08;;;;;;;1.73;1.60;;;;;;;;;;4987775;28;20040;-75
2022/06/15 12:53:53;;;;;;;3.08;2.35;;;;;;;;;;5019023;28;20160;-71
2022/06/15 12:56:40;;;;;;;1.52;1.40;;;;;;;;;;5020543;28;20051;-72
2022/06/15 12:59:24;;;;;;;2.20;2.00;;;;;;;;;;5019180;28;20033;-75
2022/06/15 13:02:05;;;;;;;1.70;1.60;;;;;;;;;;5017902;28;20120;-72
2022/06/15 13:04:47;;;;;;;2.08;1.92;;;;;;;;;;5018754;28;20053;-72
2022/06/15 13:07:19;;;;;;;2.33;2.00;;;;;;;;;;5017537;28;20152;-71
2022/06/15 13:10:03;;;;;;;1.92;1.77;;;;;;;;;;5018079;28;20040;-72
2022/06/15 13:12:33;;;;;;;1.63;1.52;;;;;;;;;;5020818;28;20120;-74
2022/06/15 13:14:59;;;;;;;1.70;1.60;;;;;;;;;;5020265;28;20029;-71
2022/06/15 13:18:06;;;;;;;1.98;1.70;;;;;;;;;;5018430;28;20029;-73
2022/06/15 13:20:31;;;;;;;2.92;2.00;;;;;;;;;;5018174;28;20022;-74
2022/06/15 13:22:57;;;;;;;2.13;1.67;;;;;;;;;;5011400;28;20443;-71
2022/06/15 13:25:22;;;;;;;2.05;1.85;;;;;;;;;;5008491;28;20055;-74
2022/06/15 13:28:08;;;;;;;1.85;1.75;;;;;;;;;;5011099;28;20036;-73
2022/06/15 13:30:48;;;;;;;3.30;1.60;;;;;;;;;;5010251;28;20083;-70
2022/06/15 13:33:14;;;;;;;1.67;1.50;;;;;;;;;;5009264;28;20376;-72
2022/06/15 13:35:41;;;;;;;3.28;1.80;;;;;;;;;;5011239;28;20044;-71
2022/06/15 13:38:28;;;;;;;2.20;1.80;;;;;;;;;;5011545;28;20029;-71
2022/06/15 13:40:53;;;;;;;2.03;1.90;;;;;;;;;;5011399;28;20464;-72
2022/06/15 13:43:21;;;;;;;2.50;2.30;;;;;;;;;;5017662;28;20050;-71
2022/06/15 13:45:47;;;;;;;3.10;1.70;;;;;;;;;;5014609;28;20379;-71
2022/06/15 13:48:14;;;;;;;2.58;2.38;;;;;;;;;;5011003;28;20029;-72
2022/06/15 13:50:43;;;;;;;2.60;1.98;;;;;;;;;;5014084;28;20071;-70
2022/06/15 13:53:24;;;;;;;2.15;2.05;;;;;;;;;;5009483;28;20052;-72
2022/06/15 13:55:56;;;;;;;2.15;2.05;;;;;;;;;;5024329;28;20049;-70
2022/06/15 13:58:40;;;;;;;3.70;2.50;;;;;;;;;;5034448;28;20052;-72
2022/06/15 14:01:32;;;;;;;1.67;1.58;;;;;;;;;;5019383;28;20041;-73
2022/06/15 14:04:10;;;;;;;1.90;1.70;;;;;;;;;;5017261;28;20060;-69
2022/06/15 14:06:35;;;;;;;2.67;1.83;;;;;;;;;;5016601;28;20044;-74
2022/06/15 14:09:13;;;;;;;2.42;1.98;;;;;;;;;;5010349;28;20025;-74
2022/06/15 14:12:00;;;;;;;1.70;1.60;;;;;;;;;;5010739;28;20035;-70
2022/06/15 14:14:51;;;;;;;2.05;1.95;;;;;;;;;;5017400;28;20261;-67
2022/06/15 14:17:35;;;;;;;2.45;2.08;;;;;;;;;;5015639;28;20032;-68
2022/06/15 14:20:07;;;;;;;2.78;1.95;;;;;;;;;;5017015;28;20452;-69
2022/06/15 14:22:46;;;;;;;2.20;2.10;;;;;;;;;;5016074;28;20053;-67
2022/06/15 14:25:14;;;;;;;2.83;2.00;;;;;;;;;;5018851;28;20018;-67
2022/06/15 14:27:39;;;;;;;1.92;1.70;;;;;;;;;;5015210;28;20045;-71
2022/06/15 14:30:06;;;;;;;1.42;1.33;;;;;;;;;;5016950;28;20068;-70
2022/06/15 14:32:37;;;;;;;1.98;1.77;;;;;;;;;;5018220;28;20499;-68
2022/06/15 14:35:11;;;;;;;2.28;1.80;;;;;;;;;;5013653;28;20079;-66
2022/06/15 14:37:36;;;;;;;1.73;1.58;;;;;;;;;;5014215;28;20033;-72
2022/06/15 14:40:02;;;;;;;2.03;1.83;;;;;;;;;;5014935;28;20099;-67
2022/06/15 14:42:29;;;;;;;2.25;2.15;;;;;;;;;;5016773;28;20084;-66
2022/06/15 14:44:56;;;;;;;2.05;1.85;;;;;;;;;;5015858;28;20410;-66
2022/06/15 14:47:24;;;;;;;4.00;1.90;;;;;;;;;;5020639;28;20029;-70
2022/06/15 14:49:53;;;;;;;2.08;1.88;;;;;;;;;;5018565;28;20052;-69
2022/06/15 14:52:22;;;;;;;1.98;1.83;;;;;;;;;;5017138;28;20516;-68
2022/06/15 14:54:49;;;;;;;2.95;1.73;;;;;;;;;;5015600;28;20490;-68
2022/06/15 14:57:19;;;;;;;3.00;2.10;;;;;;;;;;5014873;28;20037;-68
2022/06/15 14:59:46;;;;;;;1.73;1.63;;;;;;;;;;5018091;28;20428;-71
2022/06/15 15:02:11;;;;;;;1.75;1.40;;;;;;;;;;5019453;28;20335;-67
2022/06/15 15:04:40;;;;;;;1.73;1.60;;;;;;;;;;5015840;28;20037;-71
2022/06/15 15:09:51;;;;;;;1.50;1.40;;;;;;;;;;5016068;28;20482;-66
2022/06/15 15:12:20;;;;;;;2.25;1.75;;;;;;;;;;5013312;28;20060;-69
2022/06/15 15:14:50;;;;;;;1.65;1.55;;;;;;;;;;5017163;28;20443;-67
2022/06/15 15:17:15;;;;;;;20.08;1.88;;;;;;;;;;5018301;28;20038;-68
2022/06/15 15:19:42;;;;;;;2.00;1.80;;;;;;;;;;5014770;28;20037;-66
2022/06/15 15:22:12;;;;;;;1.65;1.33;;;;;;;;;;5009993;28;20392;-67
2022/06/15 15:24:43;;;;;;;1.77;1.67;;;;;;;;;;5009280;28;20033;-68